sensor_id;sensor_type;location;lat;lon;timestamp;temperature;humidity
26803;DHT22;14378;51.796;5.808;2023-02-01T00:05:25;5.60;99.90
26803;DHT22;14378;51.796;5.808;2023-02-01T00:07:26;5.60;99.90
26803;DHT22;14378;51.796;5.808;2023-02-01T00:09:27;5.60;99.90
26803;DHT22;14378;51.796;5.808;2023-02-01T00:11:28;5.60;99.90
26803;DHT22;14378;51.796;5.808;2023-02-01T00:13:30;5.60;99.90
26803;DHT22;14378;51.796;5.808;2023-02-01T00:15:31;5.70;99.90
26803;DHT22;14378;51.796;5.808;2023-02-01T00:17:34;5.70;99.90
26803;DHT22;14378;51.796;5.808;2023-02-01T00:19:35;5.70;99.90
26803;DHT22;14378;51.796;5.808;2023-02-01T00:21:36;5.70;99.90
26803;DHT22;14378;51.796;5.808;2023-02-01T00:23:37;5.80;99.90
26803;DHT22;14378;51.796;5.808;2023-02-01T00:25:39;5.70;99.90
26803;DHT22;14378;51.796;5.808;2023-02-01T00:27:40;5.80;99.90
26803;DHT22;14378;51.796;5.808;2023-02-01T00:29:41;5.80;99.90
26803;DHT22;14378;51.796;5.808;2023-02-01T00:31:43;5.80;99.90
26803;DHT22;14378;51.796;5.808;2023-02-01T00:33:47;5.90;99.90
26803;DHT22;14378;51.796;5.808;2023-02-01T00:35:48;5.90;99.90
26803;DHT22;14378;51.796;5.808;2023-02-01T00:37:52;6.00;99.90
26803;DHT22;14378;51.796;5.808;2023-02-01T00:39:53;6.00;99.90
26803;DHT22;14378;51.796;5.808;2023-02-01T00:41:56;6.00;99.90
26803;DHT22;14378;51.796;5.808;2023-02-01T00:43:57;6.00;99.90
26803;DHT22;14378;51.796;5.808;2023-02-01T00:45:58;6.10;99.90
26803;DHT22;14378;51.796;5.808;2023-02-01T00:47:59;6.10;99.90
26803;DHT22;14378;51.796;5.808;2023-02-01T00:50:00;6.10;99.90
26803;DHT22;14378;51.796;5.808;2023-02-01T00:52:01;6.10;99.90
26803;DHT22;14378;51.796;5.808;2023-02-01T00:54:02;6.20;99.90
26803;DHT22;14378;51.796;5.808;2023-02-01T00:56:05;6.20;99.90
26803;DHT22;14378;51.796;5.808;2023-02-01T00:58:06;6.30;99.90
26803;DHT22;14378;51.796;5.808;2023-02-01T01:03:10;6.30;99.90
26803;DHT22;14378;51.796;5.808;2023-02-01T01:05:20;6.30;99.90
26803;DHT22;14378;51.796;5.808;2023-02-01T01:07:21;6.30;99.90
26803;DHT22;14378;51.796;5.808;2023-02-01T01:09:22;6.30;99.90
26803;DHT22;14378;51.796;5.808;2023-02-01T01:11:30;6.40;99.90
26803;DHT22;14378;51.796;5.808;2023-02-01T01:13:34;6.40;99.90
26803;DHT22;14378;51.796;5.808;2023-02-01T01:15:39;6.40;99.90
26803;DHT22;14378;51.796;5.808;2023-02-01T01:17:40;6.50;99.90
26803;DHT22;14378;51.796;5.808;2023-02-01T01:19:42;6.50;99.90
26803;DHT22;14378;51.796;5.808;2023-02-01T01:21:43;6.50;99.90
26803;DHT22;14378;51.796;5.808;2023-02-01T01:23:45;6.50;99.90
26803;DHT22;14378;51.796;5.808;2023-02-01T01:25:46;6.50;99.90
26803;DHT22;14378;51.796;5.808;2023-02-01T01:27:47;6.50;99.90
26803;DHT22;14378;51.796;5.808;2023-02-01T01:29:49;6.50;99.90
26803;DHT22;14378;51.796;5.808;2023-02-01T01:31:50;6.40;99.90
26803;DHT22;14378;51.796;5.808;2023-02-01T01:33:53;6.40;99.90
26803;DHT22;14378;51.796;5.808;2023-02-01T01:35:55;6.40;99.90
26803;DHT22;14378;51.796;5.808;2023-02-01T01:37:57;6.40;99.90
26803;DHT22;14378;51.796;5.808;2023-02-01T01:39:58;6.30;99.90
26803;DHT22;14378;51.796;5.808;2023-02-01T01:41:59;6.30;99.90
26803;DHT22;14378;51.796;5.808;2023-02-01T01:44:06;6.30;99.90
26803;DHT22;14378;51.796;5.808;2023-02-01T01:46:10;6.30;99.90
26803;DHT22;14378;51.796;5.808;2023-02-01T01:51:06;6.30;99.90
26803;DHT22;14378;51.796;5.808;2023-02-01T01:52:50;6.30;99.90
26803;DHT22;14378;51.796;5.808;2023-02-01T01:54:53;6.20;99.90
26803;DHT22;14378;51.796;5.808;2023-02-01T01:56:57;6.20;99.90
26803;DHT22;14378;51.796;5.808;2023-02-01T01:59:00;6.30;99.90
26803;DHT22;14378;51.796;5.808;2023-02-01T02:01:02;6.20;99.90
26803;DHT22;14378;51.796;5.808;2023-02-01T02:03:17;6.20;99.90
26803;DHT22;14378;51.796;5.808;2023-02-01T02:05:20;6.20;99.90
26803;DHT22;14378;51.796;5.808;2023-02-01T02:07:28;6.20;99.90
26803;DHT22;14378;51.796;5.808;2023-02-01T02:09:29;6.30;99.90
26803;DHT22;14378;51.796;5.808;2023-02-01T02:11:30;6.20;99.90
26803;DHT22;14378;51.796;5.808;2023-02-01T02:13:34;6.10;99.90
26803;DHT22;14378;51.796;5.808;2023-02-01T02:15:41;6.10;99.90
26803;DHT22;14378;51.796;5.808;2023-02-01T02:18:09;6.10;99.90
26803;DHT22;14378;51.796;5.808;2023-02-01T02:30:17;6.10;99.90
26803;DHT22;14378;51.796;5.808;2023-02-01T02:32:34;6.10;99.90
26803;DHT22;14378;51.796;5.808;2023-02-01T02:34:54;6.10;99.90
26803;DHT22;14378;51.796;5.808;2023-02-01T02:43:58;6.00;99.90
26803;DHT22;14378;51.796;5.808;2023-02-01T02:46:37;6.00;99.90
26803;DHT22;14378;51.796;5.808;2023-02-01T02:49:07;6.10;99.90
26803;DHT22;14378;51.796;5.808;2023-02-01T02:51:15;6.00;99.90
26803;DHT22;14378;51.796;5.808;2023-02-01T02:53:43;6.00;99.90
26803;DHT22;14378;51.796;5.808;2023-02-01T02:56:06;6.00;99.90
26803;DHT22;14378;51.796;5.808;2023-02-01T02:58:27;6.10;99.90
26803;DHT22;14378;51.796;5.808;2023-02-01T03:00:47;6.10;99.90
26803;DHT22;14378;51.796;5.808;2023-02-01T03:03:05;6.10;99.90
26803;DHT22;14378;51.796;5.808;2023-02-01T03:05:36;6.20;99.90
26803;DHT22;14378;51.796;5.808;2023-02-01T03:07:57;6.20;99.90
26803;DHT22;14378;51.796;5.808;2023-02-01T03:10:09;6.10;99.90
26803;DHT22;14378;51.796;5.808;2023-02-01T03:12:13;6.20;99.90
26803;DHT22;14378;51.796;5.808;2023-02-01T03:14:35;6.20;99.90
26803;DHT22;14378;51.796;5.808;2023-02-01T03:16:50;6.20;99.90
26803;DHT22;14378;51.796;5.808;2023-02-01T03:19:08;6.20;99.90
26803;DHT22;14378;51.796;5.808;2023-02-01T03:21:16;6.20;99.90
26803;DHT22;14378;51.796;5.808;2023-02-01T03:23:21;6.20;99.90
26803;DHT22;14378;51.796;5.808;2023-02-01T03:25:28;6.20;99.90
26803;DHT22;14378;51.796;5.808;2023-02-01T03:27:42;6.20;99.90
26803;DHT22;14378;51.796;5.808;2023-02-01T03:32:01;6.30;99.90
26803;DHT22;14378;51.796;5.808;2023-02-01T03:34:05;6.40;99.90
26803;DHT22;14378;51.796;5.808;2023-02-01T03:38:43;6.40;99.90
26803;DHT22;14378;51.796;5.808;2023-02-01T03:40:55;6.40;99.90
26803;DHT22;14378;51.796;5.808;2023-02-01T03:42:59;6.50;99.90
26803;DHT22;14378;51.796;5.808;2023-02-01T03:45:10;6.50;99.90
26803;DHT22;14378;51.796;5.808;2023-02-01T03:47:23;6.50;99.90
26803;DHT22;14378;51.796;5.808;2023-02-01T03:49:45;6.60;99.90
26803;DHT22;14378;51.796;5.808;2023-02-01T03:51:47;6.50;99.90
26803;DHT22;14378;51.796;5.808;2023-02-01T03:53:52;6.50;99.90
26803;DHT22;14378;51.796;5.808;2023-02-01T03:55:54;6.60;99.90
26803;DHT22;14378;51.796;5.808;2023-02-01T03:58:18;6.60;99.90
26803;DHT22;14378;51.796;5.808;2023-02-01T04:00:23;6.50;99.90
26803;DHT22;14378;51.796;5.808;2023-02-01T04:02:24;6.50;99.90
26803;DHT22;14378;51.796;5.808;2023-02-01T04:04:25;6.50;99.90
26803;DHT22;14378;51.796;5.808;2023-02-01T04:06:29;6.60;99.90
26803;DHT22;14378;51.796;5.808;2023-02-01T04:08:34;6.50;99.90
26803;DHT22;14378;51.796;5.808;2023-02-01T04:10:36;6.50;99.90
26803;DHT22;14378;51.796;5.808;2023-02-01T04:12:38;6.60;99.90
26803;DHT22;14378;51.796;5.808;2023-02-01T04:14:39;6.50;99.90
26803;DHT22;14378;51.796;5.808;2023-02-01T04:16:41;6.50;99.90
26803;DHT22;14378;51.796;5.808;2023-02-01T04:18:45;6.40;99.90
26803;DHT22;14378;51.796;5.808;2023-02-01T04:20:46;6.40;99.90
26803;DHT22;14378;51.796;5.808;2023-02-01T04:22:47;6.40;99.90
26803;DHT22;14378;51.796;5.808;2023-02-01T04:24:49;6.50;99.90
26803;DHT22;14378;51.796;5.808;2023-02-01T04:26:50;6.40;99.90
26803;DHT22;14378;51.796;5.808;2023-02-01T04:28:52;6.40;99.90
26803;DHT22;14378;51.796;5.808;2023-02-01T04:30:54;6.40;99.90
26803;DHT22;14378;51.796;5.808;2023-02-01T04:32:56;6.40;99.90
26803;DHT22;14378;51.796;5.808;2023-02-01T04:34:57;6.40;99.90
26803;DHT22;14378;51.796;5.808;2023-02-01T04:36:59;6.40;99.90
26803;DHT22;14378;51.796;5.808;2023-02-01T04:39:00;6.40;99.90
26803;DHT22;14378;51.796;5.808;2023-02-01T04:41:01;6.30;99.90
26803;DHT22;14378;51.796;5.808;2023-02-01T04:43:03;6.30;99.90
26803;DHT22;14378;51.796;5.808;2023-02-01T04:45:05;6.30;99.90
26803;DHT22;14378;51.796;5.808;2023-02-01T04:47:06;6.40;99.90
26803;DHT22;14378;51.796;5.808;2023-02-01T04:49:11;6.40;99.90
26803;DHT22;14378;51.796;5.808;2023-02-01T04:51:15;6.40;99.90
26803;DHT22;14378;51.796;5.808;2023-02-01T04:53:17;6.40;99.90
26803;DHT22;14378;51.796;5.808;2023-02-01T04:55:18;6.30;99.90
26803;DHT22;14378;51.796;5.808;2023-02-01T04:57:19;6.40;99.90
26803;DHT22;14378;51.796;5.808;2023-02-01T04:59:20;6.40;99.90
26803;DHT22;14378;51.796;5.808;2023-02-01T05:01:22;6.50;99.90
26803;DHT22;14378;51.796;5.808;2023-02-01T05:03:23;6.50;99.90
26803;DHT22;14378;51.796;5.808;2023-02-01T05:05:24;6.50;99.90
26803;DHT22;14378;51.796;5.808;2023-02-01T05:07:25;6.50;99.90
26803;DHT22;14378;51.796;5.808;2023-02-01T05:09:26;6.50;99.90
26803;DHT22;14378;51.796;5.808;2023-02-01T05:11:27;6.50;99.90
26803;DHT22;14378;51.796;5.808;2023-02-01T05:13:46;6.60;99.90
26803;DHT22;14378;51.796;5.808;2023-02-01T05:15:51;6.60;99.90
26803;DHT22;14378;51.796;5.808;2023-02-01T05:17:52;6.60;99.90
26803;DHT22;14378;51.796;5.808;2023-02-01T05:19:53;6.60;99.90
26803;DHT22;14378;51.796;5.808;2023-02-01T05:21:54;6.60;99.90
26803;DHT22;14378;51.796;5.808;2023-02-01T05:23:55;6.60;99.90
26803;DHT22;14378;51.796;5.808;2023-02-01T05:26:16;6.70;99.90
26803;DHT22;14378;51.796;5.808;2023-02-01T05:28:17;6.70;99.90
26803;DHT22;14378;51.796;5.808;2023-02-01T05:30:18;6.70;99.90
26803;DHT22;14378;51.796;5.808;2023-02-01T05:32:22;6.80;99.90
26803;DHT22;14378;51.796;5.808;2023-02-01T05:34:23;6.70;99.90
26803;DHT22;14378;51.796;5.808;2023-02-01T05:36:24;6.90;99.90
26803;DHT22;14378;51.796;5.808;2023-02-01T05:38:25;6.90;99.90
26803;DHT22;14378;51.796;5.808;2023-02-01T05:40:26;6.80;99.90
26803;DHT22;14378;51.796;5.808;2023-02-01T05:42:27;6.70;99.90
26803;DHT22;14378;51.796;5.808;2023-02-01T05:44:28;6.80;99.90
26803;DHT22;14378;51.796;5.808;2023-02-01T05:46:29;6.80;99.90
26803;DHT22;14378;51.796;5.808;2023-02-01T05:48:30;6.80;99.90
26803;DHT22;14378;51.796;5.808;2023-02-01T05:50:31;6.80;99.90
26803;DHT22;14378;51.796;5.808;2023-02-01T05:52:32;6.80;99.90
26803;DHT22;14378;51.796;5.808;2023-02-01T05:54:33;6.80;99.90
26803;DHT22;14378;51.796;5.808;2023-02-01T05:56:34;6.80;99.90
26803;DHT22;14378;51.796;5.808;2023-02-01T05:58:35;6.80;99.90
26803;DHT22;14378;51.796;5.808;2023-02-01T06:00:39;6.80;99.90
26803;DHT22;14378;51.796;5.808;2023-02-01T06:02:41;6.90;99.90
26803;DHT22;14378;51.796;5.808;2023-02-01T06:04:43;7.00;99.90
26803;DHT22;14378;51.796;5.808;2023-02-01T06:06:44;7.00;99.90
26803;DHT22;14378;51.796;5.808;2023-02-01T06:08:45;7.00;99.90
26803;DHT22;14378;51.796;5.808;2023-02-01T06:10:46;7.00;99.90
26803;DHT22;14378;51.796;5.808;2023-02-01T06:12:47;7.00;99.90
26803;DHT22;14378;51.796;5.808;2023-02-01T06:14:49;7.00;99.90
26803;DHT22;14378;51.796;5.808;2023-02-01T06:16:51;7.00;99.90
26803;DHT22;14378;51.796;5.808;2023-02-01T06:18:53;7.00;99.90
26803;DHT22;14378;51.796;5.808;2023-02-01T06:20:58;7.00;99.90
26803;DHT22;14378;51.796;5.808;2023-02-01T06:23:03;7.00;99.90
26803;DHT22;14378;51.796;5.808;2023-02-01T06:25:08;7.00;99.90
26803;DHT22;14378;51.796;5.808;2023-02-01T06:27:09;7.10;99.90
26803;DHT22;14378;51.796;5.808;2023-02-01T06:29:13;7.00;99.90
26803;DHT22;14378;51.796;5.808;2023-02-01T06:31:14;7.00;99.90
26803;DHT22;14378;51.796;5.808;2023-02-01T06:33:17;7.00;99.90
26803;DHT22;14378;51.796;5.808;2023-02-01T06:35:18;7.00;99.90
26803;DHT22;14378;51.796;5.808;2023-02-01T06:37:23;7.10;99.90
26803;DHT22;14378;51.796;5.808;2023-02-01T06:39:25;7.10;99.90
26803;DHT22;14378;51.796;5.808;2023-02-01T06:41:28;7.10;99.90
26803;DHT22;14378;51.796;5.808;2023-02-01T06:43:29;7.20;99.90
26803;DHT22;14378;51.796;5.808;2023-02-01T06:45:30;7.20;99.90
26803;DHT22;14378;51.796;5.808;2023-02-01T06:47:31;7.20;99.90
26803;DHT22;14378;51.796;5.808;2023-02-01T06:49:33;7.20;99.90
26803;DHT22;14378;51.796;5.808;2023-02-01T06:51:34;7.20;99.90
26803;DHT22;14378;51.796;5.808;2023-02-01T06:53:35;7.20;99.90
26803;DHT22;14378;51.796;5.808;2023-02-01T06:55:36;7.20;99.90
26803;DHT22;14378;51.796;5.808;2023-02-01T06:57:37;7.20;99.90
26803;DHT22;14378;51.796;5.808;2023-02-01T06:59:38;7.20;99.90
26803;DHT22;14378;51.796;5.808;2023-02-01T07:01:40;7.20;99.90
26803;DHT22;14378;51.796;5.808;2023-02-01T07:03:41;7.20;99.90
26803;DHT22;14378;51.796;5.808;2023-02-01T07:05:42;7.20;99.90
26803;DHT22;14378;51.796;5.808;2023-02-01T07:07:43;7.30;99.90
26803;DHT22;14378;51.796;5.808;2023-02-01T07:09:44;7.20;99.90
26803;DHT22;14378;51.796;5.808;2023-02-01T07:11:45;7.20;99.90
26803;DHT22;14378;51.796;5.808;2023-02-01T07:13:46;7.20;99.90
26803;DHT22;14378;51.796;5.808;2023-02-01T07:15:47;7.20;99.90
26803;DHT22;14378;51.796;5.808;2023-02-01T07:17:48;7.30;99.90
26803;DHT22;14378;51.796;5.808;2023-02-01T07:19:55;7.30;99.90
26803;DHT22;14378;51.796;5.808;2023-02-01T07:21:56;7.30;99.90
26803;DHT22;14378;51.796;5.808;2023-02-01T07:23:58;7.30;99.90
26803;DHT22;14378;51.796;5.808;2023-02-01T07:26:02;7.30;99.90
26803;DHT22;14378;51.796;5.808;2023-02-01T07:28:04;7.30;99.90
26803;DHT22;14378;51.796;5.808;2023-02-01T07:30:06;7.20;99.90
26803;DHT22;14378;51.796;5.808;2023-02-01T07:32:07;7.30;99.90
26803;DHT22;14378;51.796;5.808;2023-02-01T07:34:08;7.30;99.90
26803;DHT22;14378;51.796;5.808;2023-02-01T07:36:12;7.30;99.90
26803;DHT22;14378;51.796;5.808;2023-02-01T07:38:13;7.20;99.90
26803;DHT22;14378;51.796;5.808;2023-02-01T07:40:14;7.20;99.90
26803;DHT22;14378;51.796;5.808;2023-02-01T07:42:15;7.20;99.90
26803;DHT22;14378;51.796;5.808;2023-02-01T07:44:16;7.30;99.90
26803;DHT22;14378;51.796;5.808;2023-02-01T07:46:23;7.30;99.90
26803;DHT22;14378;51.796;5.808;2023-02-01T07:48:25;7.20;99.90
26803;DHT22;14378;51.796;5.808;2023-02-01T07:50:26;7.20;99.90
26803;DHT22;14378;51.796;5.808;2023-02-01T07:52:28;7.20;99.90
26803;DHT22;14378;51.796;5.808;2023-02-01T07:54:29;7.20;99.90
26803;DHT22;14378;51.796;5.808;2023-02-01T07:56:31;7.20;99.90
26803;DHT22;14378;51.796;5.808;2023-02-01T07:58:32;7.10;99.90
26803;DHT22;14378;51.796;5.808;2023-02-01T08:00:32;7.20;99.90
26803;DHT22;14378;51.796;5.808;2023-02-01T08:02:52;7.20;99.90
26803;DHT22;14378;51.796;5.808;2023-02-01T08:04:53;7.20;99.90
26803;DHT22;14378;51.796;5.808;2023-02-01T08:06:53;7.10;99.90
26803;DHT22;14378;51.796;5.808;2023-02-01T08:08:56;7.10;99.90
26803;DHT22;14378;51.796;5.808;2023-02-01T08:10:58;7.20;99.90
26803;DHT22;14378;51.796;5.808;2023-02-01T08:13:02;7.10;99.90
26803;DHT22;14378;51.796;5.808;2023-02-01T08:15:05;7.10;99.90
26803;DHT22;14378;51.796;5.808;2023-02-01T08:17:06;7.10;99.90
26803;DHT22;14378;51.796;5.808;2023-02-01T08:19:07;7.10;99.90
26803;DHT22;14378;51.796;5.808;2023-02-01T08:21:19;7.10;99.90
26803;DHT22;14378;51.796;5.808;2023-02-01T08:23:21;7.10;99.90
26803;DHT22;14378;51.796;5.808;2023-02-01T08:25:25;7.20;99.90
26803;DHT22;14378;51.796;5.808;2023-02-01T08:27:27;7.20;99.90
26803;DHT22;14378;51.796;5.808;2023-02-01T08:29:28;7.10;99.90
26803;DHT22;14378;51.796;5.808;2023-02-01T08:31:30;7.10;99.90
26803;DHT22;14378;51.796;5.808;2023-02-01T08:33:31;7.10;99.90
26803;DHT22;14378;51.796;5.808;2023-02-01T08:35:32;7.10;99.90
26803;DHT22;14378;51.796;5.808;2023-02-01T08:37:35;7.10;99.90
26803;DHT22;14378;51.796;5.808;2023-02-01T08:39:36;7.20;99.90
26803;DHT22;14378;51.796;5.808;2023-02-01T08:41:37;7.20;99.90
26803;DHT22;14378;51.796;5.808;2023-02-01T08:43:38;7.10;99.90
26803;DHT22;14378;51.796;5.808;2023-02-01T08:45:40;7.10;99.90
26803;DHT22;14378;51.796;5.808;2023-02-01T08:47:41;7.10;99.90
26803;DHT22;14378;51.796;5.808;2023-02-01T08:49:42;7.10;99.90
26803;DHT22;14378;51.796;5.808;2023-02-01T08:51:44;7.10;99.90
26803;DHT22;14378;51.796;5.808;2023-02-01T08:53:45;7.10;99.90
26803;DHT22;14378;51.796;5.808;2023-02-01T08:55:47;7.20;99.90
26803;DHT22;14378;51.796;5.808;2023-02-01T08:57:49;7.20;99.90
26803;DHT22;14378;51.796;5.808;2023-02-01T08:59:51;7.20;99.90
26803;DHT22;14378;51.796;5.808;2023-02-01T09:01:52;7.20;99.90
26803;DHT22;14378;51.796;5.808;2023-02-01T09:03:53;7.20;99.90
26803;DHT22;14378;51.796;5.808;2023-02-01T09:06:10;7.20;99.90
26803;DHT22;14378;51.796;5.808;2023-02-01T09:08:11;7.30;99.90
26803;DHT22;14378;51.796;5.808;2023-02-01T09:10:16;7.30;99.90
26803;DHT22;14378;51.796;5.808;2023-02-01T09:12:17;7.30;99.90
26803;DHT22;14378;51.796;5.808;2023-02-01T09:14:18;7.30;99.90
26803;DHT22;14378;51.796;5.808;2023-02-01T09:16:19;7.40;99.90
26803;DHT22;14378;51.796;5.808;2023-02-01T09:18:23;7.40;99.90
26803;DHT22;14378;51.796;5.808;2023-02-01T09:20:24;7.50;99.90
26803;DHT22;14378;51.796;5.808;2023-02-01T09:22:25;7.60;99.90
26803;DHT22;14378;51.796;5.808;2023-02-01T09:24:26;7.70;99.90
26803;DHT22;14378;51.796;5.808;2023-02-01T09:26:27;7.80;99.90
26803;DHT22;14378;51.796;5.808;2023-02-01T09:28:28;7.90;99.90
26803;DHT22;14378;51.796;5.808;2023-02-01T09:30:29;7.90;99.90
26803;DHT22;14378;51.796;5.808;2023-02-01T09:32:30;7.90;99.90
26803;DHT22;14378;51.796;5.808;2023-02-01T09:34:32;7.90;99.90
26803;DHT22;14378;51.796;5.808;2023-02-01T09:36:34;7.90;99.90
26803;DHT22;14378;51.796;5.808;2023-02-01T09:38:35;8.00;99.90
26803;DHT22;14378;51.796;5.808;2023-02-01T09:40:40;8.00;99.90
26803;DHT22;14378;51.796;5.808;2023-02-01T09:45:03;8.10;99.90
26803;DHT22;14378;51.796;5.808;2023-02-01T09:47:12;8.20;99.90
26803;DHT22;14378;51.796;5.808;2023-02-01T09:49:19;8.20;99.90
26803;DHT22;14378;51.796;5.808;2023-02-01T09:51:27;8.20;99.90
26803;DHT22;14378;51.796;5.808;2023-02-01T09:53:34;8.30;99.90
26803;DHT22;14378;51.796;5.808;2023-02-01T09:55:41;8.40;99.90
26803;DHT22;14378;51.796;5.808;2023-02-01T10:00:23;8.60;99.90
26803;DHT22;14378;51.796;5.808;2023-02-01T10:02:26;8.80;99.90
26803;DHT22;14378;51.796;5.808;2023-02-01T10:04:29;8.90;99.90
26803;DHT22;14378;51.796;5.808;2023-02-01T10:11:32;8.90;99.90
26803;DHT22;14378;51.796;5.808;2023-02-01T10:14:09;8.90;99.90
26803;DHT22;14378;51.796;5.808;2023-02-01T10:25:55;8.90;99.90
26803;DHT22;14378;51.796;5.808;2023-02-01T10:27:57;8.90;99.90
26803;DHT22;14378;51.796;5.808;2023-02-01T10:30:06;8.90;99.90
26803;DHT22;14378;51.796;5.808;2023-02-01T10:32:21;8.90;99.90
26803;DHT22;14378;51.796;5.808;2023-02-01T10:34:27;8.90;99.90
26803;DHT22;14378;51.796;5.808;2023-02-01T10:36:37;8.80;99.90
26803;DHT22;14378;51.796;5.808;2023-02-01T10:38:44;8.80;99.90
26803;DHT22;14378;51.796;5.808;2023-02-01T10:40:47;8.80;99.90
26803;DHT22;14378;51.796;5.808;2023-02-01T10:42:51;8.80;99.90
26803;DHT22;14378;51.796;5.808;2023-02-01T10:44:56;8.70;99.90
26803;DHT22;14378;51.796;5.808;2023-02-01T10:46:57;8.70;99.90
26803;DHT22;14378;51.796;5.808;2023-02-01T10:49:02;8.70;99.90
26803;DHT22;14378;51.796;5.808;2023-02-01T10:51:26;8.70;99.90
26803;DHT22;14378;51.796;5.808;2023-02-01T10:53:45;8.60;99.90
26803;DHT22;14378;51.796;5.808;2023-02-01T10:55:51;8.60;99.90
26803;DHT22;14378;51.796;5.808;2023-02-01T10:57:58;8.50;99.90
26803;DHT22;14378;51.796;5.808;2023-02-01T11:00:03;8.60;99.90
26803;DHT22;14378;51.796;5.808;2023-02-01T11:02:27;8.50;99.90
26803;DHT22;14378;51.796;5.808;2023-02-01T11:04:34;8.50;99.90
26803;DHT22;14378;51.796;5.808;2023-02-01T11:06:37;8.40;99.90
26803;DHT22;14378;51.796;5.808;2023-02-01T11:11:08;8.40;99.90
26803;DHT22;14378;51.796;5.808;2023-02-01T11:13:17;8.40;99.90
26803;DHT22;14378;51.796;5.808;2023-02-01T11:15:22;8.40;99.90
26803;DHT22;14378;51.796;5.808;2023-02-01T11:17:34;8.40;99.90
26803;DHT22;14378;51.796;5.808;2023-02-01T11:19:36;8.40;99.90
26803;DHT22;14378;51.796;5.808;2023-02-01T11:21:39;8.40;99.90
26803;DHT22;14378;51.796;5.808;2023-02-01T11:23:44;8.40;99.90
26803;DHT22;14378;51.796;5.808;2023-02-01T11:25:56;8.30;99.90
26803;DHT22;14378;51.796;5.808;2023-02-01T11:27:57;8.40;99.90
26803;DHT22;14378;51.796;5.808;2023-02-01T11:30:04;8.40;99.90
26803;DHT22;14378;51.796;5.808;2023-02-01T11:32:05;8.40;99.90
26803;DHT22;14378;51.796;5.808;2023-02-01T11:34:20;8.40;99.90
26803;DHT22;14378;51.796;5.808;2023-02-01T11:36:24;8.40;99.90
26803;DHT22;14378;51.796;5.808;2023-02-01T11:38:32;8.40;99.90
26803;DHT22;14378;51.796;5.808;2023-02-01T11:40:37;8.50;99.90
26803;DHT22;14378;51.796;5.808;2023-02-01T11:43:12;8.40;99.90
26803;DHT22;14378;51.796;5.808;2023-02-01T11:45:34;8.40;99.90
26803;DHT22;14378;51.796;5.808;2023-02-01T11:47:41;8.50;99.90
26803;DHT22;14378;51.796;5.808;2023-02-01T11:49:42;8.50;99.90
26803;DHT22;14378;51.796;5.808;2023-02-01T11:56:40;8.30;99.90
26803;DHT22;14378;51.796;5.808;2023-02-01T12:04:15;8.20;99.90
26803;DHT22;14378;51.796;5.808;2023-02-01T12:13:18;8.10;99.90
26803;DHT22;14378;51.796;5.808;2023-02-01T12:20:51;8.10;99.90
26803;DHT22;14378;51.796;5.808;2023-02-01T12:23:21;8.10;99.90
26803;DHT22;14378;51.796;5.808;2023-02-01T12:30:32;8.10;99.90
26803;DHT22;14378;51.796;5.808;2023-02-01T12:40:32;8.20;99.90
26803;DHT22;14378;51.796;5.808;2023-02-01T12:43:18;8.30;99.90
26803;DHT22;14378;51.796;5.808;2023-02-01T12:47:35;8.30;99.90
26803;DHT22;14378;51.796;5.808;2023-02-01T12:49:59;8.40;99.90
26803;DHT22;14378;51.796;5.808;2023-02-01T12:52:05;8.40;99.90
26803;DHT22;14378;51.796;5.808;2023-02-01T12:56:57;8.40;99.90
26803;DHT22;14378;51.796;5.808;2023-02-01T12:58:59;8.40;99.90
26803;DHT22;14378;51.796;5.808;2023-02-01T13:05:42;8.50;99.90
26803;DHT22;14378;51.796;5.808;2023-02-01T13:07:49;8.50;99.90
26803;DHT22;14378;51.796;5.808;2023-02-01T13:10:15;8.50;99.90
26803;DHT22;14378;51.796;5.808;2023-02-01T13:12:43;8.50;99.90
26803;DHT22;14378;51.796;5.808;2023-02-01T13:14:54;8.50;99.90
26803;DHT22;14378;51.796;5.808;2023-02-01T13:17:20;8.50;99.90
26803;DHT22;14378;51.796;5.808;2023-02-01T13:21:58;8.60;99.90
26803;DHT22;14378;51.796;5.808;2023-02-01T13:24:02;8.60;99.90
26803;DHT22;14378;51.796;5.808;2023-02-01T13:26:04;8.60;99.90
26803;DHT22;14378;51.796;5.808;2023-02-01T13:28:10;8.60;99.90
26803;DHT22;14378;51.796;5.808;2023-02-01T13:30:18;8.60;99.90
26803;DHT22;14378;51.796;5.808;2023-02-01T13:35:00;8.60;99.90
26803;DHT22;14378;51.796;5.808;2023-02-01T13:43:29;8.70;99.90
26803;DHT22;14378;51.796;5.808;2023-02-01T13:45:34;8.70;99.90
26803;DHT22;14378;51.796;5.808;2023-02-01T13:47:42;8.80;99.90
26803;DHT22;14378;51.796;5.808;2023-02-01T13:49:44;8.80;99.90
26803;DHT22;14378;51.796;5.808;2023-02-01T13:58:49;8.80;99.90
26803;DHT22;14378;51.796;5.808;2023-02-01T14:03:22;8.80;99.90
26803;DHT22;14378;51.796;5.808;2023-02-01T14:12:48;8.90;99.90
26803;DHT22;14378;51.796;5.808;2023-02-01T14:14:49;8.90;99.90
26803;DHT22;14378;51.796;5.808;2023-02-01T14:19:00;8.90;99.90
26803;DHT22;14378;51.796;5.808;2023-02-01T14:23:28;8.90;99.90
26803;DHT22;14378;51.796;5.808;2023-02-01T14:25:37;9.00;99.90
26803;DHT22;14378;51.796;5.808;2023-02-01T14:27:38;9.00;99.90
26803;DHT22;14378;51.796;5.808;2023-02-01T14:29:42;9.00;99.90
26803;DHT22;14378;51.796;5.808;2023-02-01T14:31:58;9.00;99.90
26803;DHT22;14378;51.796;5.808;2023-02-01T14:34:30;9.00;99.90
26803;DHT22;14378;51.796;5.808;2023-02-01T14:38:57;9.00;99.90
26803;DHT22;14378;51.796;5.808;2023-02-01T14:41:24;9.00;99.90
26803;DHT22;14378;51.796;5.808;2023-02-01T14:43:51;9.10;99.90
26803;DHT22;14378;51.796;5.808;2023-02-01T14:45:52;9.00;99.90
26803;DHT22;14378;51.796;5.808;2023-02-01T14:52:13;9.00;99.90
26803;DHT22;14378;51.796;5.808;2023-02-01T14:54:18;8.90;99.90
26803;DHT22;14378;51.796;5.808;2023-02-01T14:56:20;8.90;99.90
26803;DHT22;14378;51.796;5.808;2023-02-01T14:58:36;9.00;99.90
26803;DHT22;14378;51.796;5.808;2023-02-01T15:00:57;9.00;99.90
26803;DHT22;14378;51.796;5.808;2023-02-01T15:05:31;9.00;99.90
26803;DHT22;14378;51.796;5.808;2023-02-01T15:07:33;9.00;99.90
26803;DHT22;14378;51.796;5.808;2023-02-01T15:09:38;8.90;99.90
26803;DHT22;14378;51.796;5.808;2023-02-01T15:14:14;8.90;99.90
26803;DHT22;14378;51.796;5.808;2023-02-01T15:16:16;9.00;99.90
26803;DHT22;14378;51.796;5.808;2023-02-01T15:18:17;9.00;99.90
26803;DHT22;14378;51.796;5.808;2023-02-01T15:20:24;9.00;99.90
26803;DHT22;14378;51.796;5.808;2023-02-01T15:22:27;8.90;99.90
26803;DHT22;14378;51.796;5.808;2023-02-01T15:24:31;8.90;99.90
26803;DHT22;14378;51.796;5.808;2023-02-01T15:26:32;8.90;99.90
26803;DHT22;14378;51.796;5.808;2023-02-01T15:28:34;8.90;99.90
26803;DHT22;14378;51.796;5.808;2023-02-01T15:30:36;8.90;99.90
26803;DHT22;14378;51.796;5.808;2023-02-01T15:32:42;8.80;99.90
26803;DHT22;14378;51.796;5.808;2023-02-01T15:34:48;8.80;99.90
26803;DHT22;14378;51.796;5.808;2023-02-01T15:36:49;8.80;99.90
26803;DHT22;14378;51.796;5.808;2023-02-01T15:39:23;8.80;99.90
26803;DHT22;14378;51.796;5.808;2023-02-01T15:41:30;8.70;99.90
26803;DHT22;14378;51.796;5.808;2023-02-01T15:44:18;8.70;99.90
26803;DHT22;14378;51.796;5.808;2023-02-01T15:46:08;8.80;99.90
26803;DHT22;14378;51.796;5.808;2023-02-01T15:48:20;8.70;99.90